createdAt,value
2022-10-03T00:01:56.218Z,75.41
2022-10-03T00:04:53.261Z,75.36
2022-10-03T00:07:48.040Z,75.14
2022-10-03T00:10:35.032Z,75.19
2022-10-03T00:13:25.654Z,74.85
2022-10-03T00:16:14.309Z,75.58
2022-10-03T00:19:07.482Z,75.71
2022-10-03T00:22:13.100Z,75.42
2022-10-03T00:25:35.843Z,75.85
2022-10-03T00:28:50.275Z,75.62
2022-10-03T00:31:47.793Z,75.51
2022-10-03T00:35:08.716Z,75.35
2022-10-03T00:37:54.682Z,75.46
2022-10-03T00:40:49.403Z,75.41
2022-10-03T00:43:56.045Z,75.29
2022-10-03T00:46:54.878Z,75.71
2022-10-03T00:49:57.069Z,75.69
2022-10-03T00:52:48.636Z,76.02
2022-10-03T00:55:21.349Z,75.85
2022-10-03T00:58:10.656Z,75.99
2022-10-03T01:00:42.757Z,76.24
2022-10-03T01:03:30.967Z,75.48
2022-10-03T01:06:15.305Z,75.79
2022-10-03T01:08:59.686Z,76.12
2022-10-03T01:12:00.352Z,76.08
2022-10-03T01:15:05.189Z,75.59
2022-10-03T01:18:16.962Z,75.57
2022-10-03T01:21:24.052Z,76.05
2022-10-03T01:24:25.070Z,75.87
2022-10-03T01:27:02.241Z,76.00
2022-10-03T01:30:07.052Z,76.04
2022-10-03T01:32:58.798Z,75.60
2022-10-03T01:35:59.846Z,75.96
2022-10-03T01:38:54.531Z,75.67
2022-10-03T01:41:37.357Z,76.02
2022-10-03T01:44:25.183Z,75.81
2022-10-03T01:47:29.233Z,75.21
2022-10-03T01:50:20.938Z,75.21
2022-10-03T01:53:30.171Z,75.20
2022-10-03T01:56:08.776Z,75.53
2022-10-03T01:59:08.300Z,75.55
2022-10-03T02:01:55.957Z,75.38
2022-10-03T02:04:39.730Z,75.52
2022-10-03T02:07:40.805Z,75.46
2022-10-03T02:10:40.409Z,75.67
2022-10-03T02:13:25.434Z,75.54
2022-10-03T02:15:55.282Z,76.01
2022-10-03T02:18:49.821Z,76.21
2022-10-03T02:21:27.901Z,76.09
2022-10-03T02:24:17.259Z,76.43
2022-10-03T02:27:05.530Z,76.47
2022-10-03T02:29:50.064Z,76.98
2022-10-03T02:32:58.404Z,76.50
2022-10-03T02:35:49.917Z,76.91
2022-10-03T02:38:52.162Z,77.09
2022-10-03T02:41:28.175Z,76.88
2022-10-03T02:44:21.097Z,77.21
2022-10-03T02:47:16.612Z,76.87
2022-10-03T02:50:36.429Z,76.96
2022-10-03T02:53:31.161Z,77.46
2022-10-03T02:56:29.266Z,77.27
2022-10-03T02:59:23.957Z,77.03
2022-10-03T03:01:58.531Z,77.07
2022-10-03T03:04:41.652Z,77.10
2022-10-03T03:07:20.661Z,77.26
2022-10-03T03:10:33.560Z,76.79
2022-10-03T03:13:56.075Z,77.01
2022-10-03T03:16:59.430Z,77.48
2022-10-03T03:20:07.249Z,77.41
2022-10-03T03:22:52.528Z,77.84
2022-10-03T03:25:37.088Z,77.35
2022-10-03T03:28:25.847Z,77.45
2022-10-03T03:31:11.028Z,77.62
2022-10-03T03:33:53.276Z,77.66
2022-10-03T03:36:31.043Z,77.17
2022-10-03T03:39:51.443Z,77.02
2022-10-03T03:42:24.286Z,77.06
2022-10-03T03:44:54.428Z,77.13
2022-10-03T03:47:59.404Z,77.46
2022-10-03T03:50:52.900Z,76.82
2022-10-03T03:53:47.171Z,77.51
2022-10-03T03:56:38.787Z,77.53
2022-10-03T03:59:33.519Z,77.32
2022-10-03T04:02:15.574Z,77.38
2022-10-03T04:04:56.489Z,77.31
2022-10-03T04:07:52.513Z,77.85
2022-10-03T04:10:59.279Z,77.65
2022-10-03T04:13:38.349Z,77.77
2022-10-03T04:16:14.234Z,77.54
2022-10-03T04:19:40.196Z,77.51
2022-10-03T04:22:35.128Z,77.46
2022-10-03T04:25:23.020Z,77.31
2022-10-03T04:28:22.488Z,77.21
2022-10-03T04:31:12.329Z,77.07
2022-10-03T04:34:03.934Z,76.94
2022-10-03T04:37:10.679Z,76.85
2022-10-03T04:40:18.340Z,76.16
2022-10-03T04:42:54.201Z,77.06
2022-10-03T04:45:45.422Z,77.40
2022-10-03T04:48:32.089Z,76.95
2022-10-03T04:51:33.529Z,76.81
2022-10-03T04:54:30.447Z,77.16
2022-10-03T04:57:15.678Z,76.86
2022-10-03T04:59:55.635Z,77.15
2022-10-03T05:02:43.517Z,76.35
2022-10-03T05:05:26.029Z,76.72
2022-10-03T05:08:14.387Z,76.36
2022-10-03T05:11:12.391Z,76.88
2022-10-03T05:14:22.967Z,77.33
2022-10-03T05:17:22.085Z,76.55
2022-10-03T05:20:23.967Z,76.63
2022-10-03T05:23:26.494Z,76.51
2022-10-03T05:26:44.550Z,76.39
2022-10-03T05:29:44.146Z,76.70
2022-10-03T05:32:37.743Z,76.63
2022-10-03T05:35:26.376Z,77.61
2022-10-03T05:38:21.002Z,77.26
2022-10-03T05:41:25.931Z,77.40
2022-10-03T05:43:58.460Z,77.29
2022-10-03T05:47:01.420Z,76.93
2022-10-03T05:50:03.755Z,77.31
2022-10-03T05:53:01.381Z,77.18
2022-10-03T05:56:03.693Z,77.36
2022-10-03T05:59:18.349Z,78.29
2022-10-03T06:02:32.791Z,78.18
2022-10-03T06:05:28.627Z,77.98
2022-10-03T06:08:42.512Z,78.38
2022-10-03T06:11:19.956Z,78.05
2022-10-03T06:14:07.633Z,78.16
2022-10-03T06:16:46.710Z,77.88
2022-10-03T06:19:35.421Z,78.46
2022-10-03T06:22:47.425Z,78.71
2022-10-03T06:25:26.526Z,78.27
2022-10-03T06:28:51.216Z,79.03
2022-10-03T06:31:50.620Z,79.07
2022-10-03T06:34:39.223Z,79.50
2022-10-03T06:37:52.493Z,79.40
2022-10-03T06:40:29.183Z,80.57
2022-10-03T06:43:30.089Z,80.66
2022-10-03T06:46:24.666Z,80.31
2022-10-03T06:49:09.874Z,81.10
2022-10-03T06:52:27.151Z,81.24
2022-10-03T06:55:16.164Z,81.10
2022-10-03T06:58:13.697Z,81.94
2022-10-03T07:01:15.505Z,82.18
2022-10-03T07:03:45.156Z,82.67
2022-10-03T07:06:49.140Z,83.00
2022-10-03T07:09:31.169Z,83.97
2022-10-03T07:12:35.740Z,84.03
2022-10-03T07:16:13.909Z,84.54
2022-10-03T07:19:20.106Z,84.61
2022-10-03T07:22:11.296Z,84.65
2022-10-03T07:25:43.784Z,85.07
2022-10-03T07:28:40.917Z,85.17
2022-10-03T07:31:21.170Z,85.78
2022-10-03T07:34:39.241Z,85.35
2022-10-03T07:37:40.099Z,85.55
2022-10-03T07:40:42.173Z,85.19
2022-10-03T07:44:00.349Z,85.40
2022-10-03T07:46:45.598Z,85.18
2022-10-03T07:49:45.625Z,85.83
2022-10-03T07:52:39.768Z,85.72
2022-10-03T07:55:25.786Z,85.78
2022-10-03T07:58:30.348Z,85.23
2022-10-03T08:01:33.869Z,85.57
2022-10-03T08:04:26.123Z,85.59
2022-10-03T08:07:28.350Z,85.42
2022-10-03T08:10:50.724Z,85.73
2022-10-03T08:14:20.794Z,85.50
2022-10-03T08:16:59.817Z,85.20
2022-10-03T08:19:57.127Z,85.50
2022-10-03T08:23:10.853Z,85.16
2022-10-03T08:26:08.654Z,85.25
2022-10-03T08:28:48.934Z,85.24
2022-10-03T08:31:19.143Z,84.55
2022-10-03T08:34:18.202Z,84.16
2022-10-03T08:37:39.417Z,84.16
2022-10-03T08:40:40.354Z,83.78
2022-10-03T08:43:39.666Z,83.80
2022-10-03T08:46:48.333Z,83.11
2022-10-03T08:49:45.746Z,83.30
2022-10-03T08:52:30.712Z,82.93
2022-10-03T08:55:12.852Z,82.98
2022-10-03T08:58:07.925Z,82.98
2022-10-03T09:01:26.009Z,82.94
2022-10-03T09:04:17.993Z,82.40
2022-10-03T09:07:41.805Z,82.20
2022-10-03T09:10:37.513Z,82.60
2022-10-03T09:13:38.257Z,82.45
2022-10-03T09:16:51.450Z,82.68
2022-10-03T09:19:52.348Z,82.44
2022-10-03T09:22:49.456Z,81.96
2022-10-03T09:25:41.248Z,81.99
2022-10-03T09:28:32.204Z,81.83
2022-10-03T09:31:12.784Z,80.44
2022-10-03T09:34:10.095Z,79.70
2022-10-03T09:37:17.882Z,79.84
2022-10-03T09:40:06.224Z,79.34
2022-10-03T09:43:07.318Z,79.21
2022-10-03T09:46:05.504Z,78.84
2022-10-03T09:49:43.069Z,78.88
2022-10-03T09:52:51.003Z,77.63
2022-10-03T09:56:07.421Z,78.21
2022-10-03T09:59:16.972Z,77.35
2022-10-03T10:02:03.628Z,77.05
2022-10-03T10:05:28.536Z,77.04
2022-10-03T10:08:45.240Z,77.22
2022-10-03T10:11:54.362Z,75.56
2022-10-03T10:15:07.389Z,76.46
2022-10-03T10:18:27.578Z,76.32
2022-10-03T10:21:39.121Z,76.14
2022-10-03T10:24:55.995Z,74.96
2022-10-03T10:28:14.524Z,75.12
2022-10-03T10:31:27.196Z,75.39
2022-10-03T10:35:00.709Z,74.97
2022-10-03T10:41:23.139Z,73.49
2022-10-03T10:44:54.067Z,74.10
2022-10-03T11:00:26.555Z,73.52
2022-10-03T11:13:14.180Z,72.34
2022-10-03T11:15:56.186Z,72.47
2022-10-03T11:18:25.905Z,71.75
2022-10-03T11:20:53.022Z,71.96
2022-10-03T11:23:46.239Z,71.58
2022-10-03T11:27:24.116Z,70.93
2022-10-03T11:30:37.103Z,70.14
2022-10-03T11:33:52.343Z,70.20
2022-10-03T11:36:46.771Z,70.40
2022-10-03T11:39:27.147Z,70.10
2022-10-03T11:42:22.243Z,69.42
2022-10-03T11:45:02.510Z,68.71
2022-10-03T11:47:40.107Z,68.90
2022-10-03T11:50:41.604Z,68.48
2022-10-03T11:53:42.603Z,68.69
2022-10-03T12:00:20.250Z,68.80
2022-10-03T12:03:13.923Z,68.12
2022-10-03T12:06:13.944Z,67.79
2022-10-03T12:08:55.830Z,67.58
2022-10-03T12:23:53.517Z,65.93
2022-10-03T12:29:34.095Z,65.46
2022-10-03T12:32:36.061Z,65.64
2022-10-03T12:35:25.723Z,65.03
2022-10-03T12:38:15.107Z,65.00
2022-10-03T12:40:54.073Z,64.29
2022-10-03T12:44:04.959Z,63.28
2022-10-03T12:47:03.236Z,63.53
2022-10-03T12:50:31.118Z,63.31
2022-10-03T12:53:16.302Z,61.80
2022-10-03T12:56:07.478Z,62.55
2022-10-03T12:58:44.761Z,62.81
2022-10-03T13:01:26.036Z,62.12
2022-10-03T13:04:19.904Z,61.54
2022-10-03T13:07:03.709Z,61.48
2022-10-03T13:09:46.506Z,61.20
2022-10-03T13:12:34.707Z,61.62
2022-10-03T13:15:39.016Z,60.28
2022-10-03T13:18:33.063Z,60.90
2022-10-03T13:21:46.645Z,60.81
2022-10-03T13:24:38.254Z,60.66
2022-10-03T13:27:18.218Z,60.58
2022-10-03T13:29:50.898Z,60.57
2022-10-03T13:32:31.954Z,60.73
2022-10-03T13:35:39.430Z,60.38
2022-10-03T13:38:26.432Z,60.41
2022-10-03T13:41:26.981Z,59.92
2022-10-03T13:44:26.047Z,59.38
2022-10-03T13:47:47.590Z,59.03
2022-10-03T13:50:36.612Z,58.68
2022-10-03T13:53:20.383Z,58.73
2022-10-03T13:55:56.370Z,59.30
2022-10-03T13:58:40.140Z,59.41
2022-10-03T14:01:23.325Z,58.95
2022-10-03T14:04:32.197Z,58.72
2022-10-03T14:07:34.991Z,59.04
2022-10-03T14:10:14.169Z,57.12
2022-10-03T14:13:16.277Z,57.07
2022-10-03T14:16:00.366Z,57.25
2022-10-03T14:18:53.676Z,57.66
2022-10-03T14:21:39.978Z,57.08
2022-10-03T14:24:52.895Z,57.02
2022-10-03T14:27:43.267Z,57.07
2022-10-03T14:30:16.877Z,56.54
2022-10-03T14:33:02.342Z,56.53
2022-10-03T14:36:06.230Z,56.26
2022-10-03T14:38:57.720Z,55.98
2022-10-03T14:41:56.704Z,54.74
2022-10-03T14:44:47.947Z,55.54
2022-10-03T14:47:18.817Z,55.50
2022-10-03T14:49:59.183Z,55.58
2022-10-03T14:52:49.991Z,55.42
2022-10-03T14:55:29.873Z,56.35
2022-10-03T14:58:17.106Z,55.86
2022-10-03T15:01:24.241Z,56.02
2022-10-03T15:04:00.563Z,55.72
2022-10-03T15:06:45.758Z,56.47
2022-10-03T15:09:22.485Z,56.25
2022-10-03T15:12:01.995Z,55.91
2022-10-03T15:14:35.102Z,55.87
2022-10-03T15:17:16.898Z,56.39
2022-10-03T15:19:55.073Z,56.57
2022-10-03T15:22:29.442Z,56.84
2022-10-03T15:25:06.007Z,56.42
2022-10-03T15:27:34.743Z,56.74
2022-10-03T15:30:05.551Z,56.83
2022-10-03T15:32:37.405Z,57.71
2022-10-03T15:35:06.574Z,57.27
2022-10-03T15:37:42.909Z,56.92
2022-10-03T15:40:41.313Z,57.60
2022-10-03T15:43:38.172Z,58.09
2022-10-03T15:46:26.991Z,58.42
2022-10-03T15:48:55.075Z,58.68
2022-10-03T15:51:27.622Z,59.13
2022-10-03T15:53:59.058Z,59.43
2022-10-03T15:56:51.123Z,59.30
2022-10-03T15:59:35.473Z,60.03
2022-10-03T16:02:37.627Z,60.08
2022-10-03T16:05:15.547Z,60.86
2022-10-03T16:07:54.651Z,61.01
2022-10-03T16:10:26.778Z,61.37
2022-10-03T16:13:33.743Z,61.60
2022-10-03T16:16:45.931Z,61.76
2022-10-03T16:19:27.783Z,62.00
2022-10-03T16:22:25.101Z,62.16
2022-10-03T16:25:16.543Z,62.82
2022-10-03T16:27:57.731Z,62.86
2022-10-03T16:30:32.062Z,63.41
2022-10-03T16:33:24.932Z,62.96
2022-10-03T16:35:58.737Z,63.32
2022-10-03T16:38:30.164Z,63.63
2022-10-03T16:41:10.538Z,63.50
2022-10-03T16:43:37.700Z,63.70
2022-10-03T16:46:19.367Z,63.79
2022-10-03T16:49:05.149Z,63.94
2022-10-03T16:51:55.542Z,63.87
2022-10-03T16:54:23.989Z,64.11
2022-10-03T16:56:58.873Z,64.15
2022-10-03T16:59:30.156Z,63.71
2022-10-03T17:02:29.971Z,64.58
2022-10-03T17:05:08.115Z,64.50
2022-10-03T17:07:45.701Z,64.82
2022-10-03T17:10:36.303Z,64.89
2022-10-03T17:13:23.678Z,64.54
2022-10-03T17:16:00.704Z,64.72
2022-10-03T17:18:37.861Z,65.04
2022-10-03T17:21:12.929Z,64.93
2022-10-03T17:23:48.939Z,64.95
2022-10-03T17:26:33.359Z,64.75
2022-10-03T17:29:25.606Z,64.92
2022-10-03T17:32:17.543Z,65.28
2022-10-03T17:35:03.119Z,65.08
2022-10-03T17:38:49.842Z,64.84
2022-10-03T17:41:24.340Z,65.54
2022-10-03T18:14:27.652Z,66.86
2022-10-03T18:17:17.312Z,67.32
2022-10-03T18:20:07.193Z,67.37
2022-10-03T18:22:41.170Z,67.55
2022-10-03T18:25:42.035Z,67.73
2022-10-03T18:28:13.573Z,68.28
2022-10-03T18:31:05.991Z,68.09
2022-10-03T18:33:50.841Z,67.88
2022-10-03T18:36:17.719Z,68.71
2022-10-03T18:38:47.979Z,68.76
2022-10-03T18:41:17.558Z,69.27
2022-10-03T18:44:00.052Z,68.89
2022-10-03T18:46:40.191Z,69.16
2022-10-03T18:49:33.966Z,68.75
2022-10-03T18:52:24.410Z,68.93
2022-10-03T18:55:19.007Z,69.33
2022-10-03T18:58:22.829Z,69.74
2022-10-03T19:01:05.362Z,69.65
2022-10-03T19:03:58.749Z,70.05
2022-10-03T19:06:34.510Z,69.93
2022-10-03T19:09:19.663Z,69.93
2022-10-03T19:12:22.025Z,69.59
2022-10-03T19:15:33.347Z,69.96
2022-10-03T19:18:12.738Z,69.98
2022-10-03T19:20:48.889Z,69.91
2022-10-03T19:23:43.958Z,70.84
2022-10-03T19:26:23.370Z,70.78
2022-10-03T19:29:05.005Z,70.70
2022-10-03T19:31:41.997Z,70.72
2022-10-03T19:34:32.260Z,70.48
2022-10-03T19:37:00.498Z,71.06
2022-10-03T19:39:32.550Z,71.11
2022-10-03T19:42:47.970Z,71.24
2022-10-03T19:45:16.637Z,71.18
2022-10-03T19:47:58.810Z,71.34
2022-10-03T19:50:38.015Z,70.91
2022-10-03T19:53:16.838Z,71.44
2022-10-03T19:55:46.598Z,71.62
2022-10-03T19:58:24.165Z,71.51
2022-10-03T20:01:00.343Z,71.49
2022-10-03T20:03:52.687Z,71.47
2022-10-03T20:06:45.862Z,71.99
2022-10-03T20:09:23.929Z,72.10
2022-10-03T20:12:11.943Z,72.20
2022-10-03T20:14:42.051Z,72.42
2022-10-03T20:17:21.414Z,72.63
2022-10-03T20:20:08.212Z,72.62
2022-10-03T20:22:45.035Z,72.81
2022-10-03T20:25:34.460Z,72.66
2022-10-03T20:28:08.853Z,72.49
2022-10-03T20:30:50.207Z,72.99
2022-10-03T20:33:38.178Z,73.24
2022-10-03T20:36:22.077Z,73.50
2022-10-03T20:39:01.510Z,72.98
2022-10-03T20:41:59.875Z,74.06
2022-10-03T20:45:04.482Z,73.43
2022-10-03T20:47:55.626Z,73.98
2022-10-03T20:50:48.165Z,73.85
2022-10-03T20:53:27.729Z,73.93
2022-10-03T20:56:12.537Z,73.27
2022-10-03T20:58:54.212Z,74.14
2022-10-03T21:01:27.186Z,74.02
2022-10-03T21:04:06.260Z,73.63
2022-10-03T21:06:57.876Z,73.96
2022-10-03T21:09:42.310Z,73.60
2022-10-03T21:12:26.678Z,73.52
2022-10-03T21:15:05.316Z,73.60
2022-10-03T21:17:33.143Z,73.69
2022-10-03T21:20:14.504Z,73.28
2022-10-03T21:22:43.488Z,74.13
2022-10-03T21:25:32.310Z,73.66
2022-10-03T21:27:59.693Z,73.98
2022-10-03T21:31:00.326Z,73.48
2022-10-03T21:33:42.349Z,73.78
2022-10-03T21:36:22.552Z,73.41
2022-10-03T21:38:51.426Z,73.32
2022-10-03T21:41:35.149Z,73.78
2022-10-03T21:44:11.149Z,73.47
2022-10-03T21:47:05.143Z,73.95
2022-10-03T21:49:58.275Z,74.19
2022-10-03T21:52:51.851Z,74.12
2022-10-03T21:55:39.188Z,73.90
2022-10-03T21:58:29.166Z,74.14
2022-10-03T22:01:31.906Z,73.86
2022-10-03T22:04:22.352Z,74.57
2022-10-03T22:07:18.965Z,74.28
2022-10-03T22:09:55.417Z,74.31
2022-10-03T22:12:27.685Z,74.83
2022-10-03T22:15:23.528Z,74.95
2022-10-03T22:18:10.176Z,75.16
2022-10-03T22:20:48.907Z,74.67
2022-10-03T22:23:43.734Z,74.91
2022-10-03T22:26:28.602Z,74.93
2022-10-03T22:29:29.802Z,74.68
2022-10-03T22:32:16.414Z,74.83
2022-10-03T22:35:15.386Z,74.80
2022-10-03T22:37:42.955Z,74.78
2022-10-03T22:40:11.157Z,75.20
2022-10-03T22:42:44.708Z,75.29
2022-10-03T22:45:17.310Z,74.83
2022-10-03T22:47:50.953Z,75.09
2022-10-03T22:50:22.072Z,75.12
2022-10-03T22:52:51.963Z,75.14
2022-10-03T22:55:22.634Z,75.08
2022-10-03T22:57:51.523Z,74.51
2022-10-03T23:00:24.909Z,75.03
2022-10-03T23:03:27.153Z,75.22
2022-10-03T23:06:40.536Z,75.67
2022-10-03T23:09:55.554Z,75.27
2022-10-03T23:12:28.314Z,75.02
2022-10-03T23:14:56.936Z,75.36
2022-10-03T23:18:02.185Z,75.60
2022-10-03T23:21:14.360Z,75.08
2022-10-03T23:23:53.517Z,75.50
2022-10-03T23:27:24.330Z,75.35
2022-10-03T23:30:12.665Z,75.63
2022-10-03T23:32:48.303Z,75.99
2022-10-03T23:35:40.063Z,75.96
2022-10-03T23:38:31.588Z,75.85
2022-10-03T23:41:03.947Z,75.38
2022-10-03T23:43:38.815Z,75.18
2022-10-03T23:46:14.704Z,75.31
2022-10-03T23:48:53.182Z,75.60
2022-10-03T23:51:27.361Z,75.42
2022-10-03T23:54:02.631Z,75.62
2022-10-03T23:56:42.371Z,75.91
2022-10-03T23:59:27.621Z,76.20
